sensor_id;sensor_type;location;lat;lon;timestamp;P1;durP1;ratioP1;P2;durP2;ratioP2
53269;SDS011;39159;45.634;9.420;2022-12-18T00:02:12;35.60;;;21.85;;
53269;SDS011;39159;45.634;9.420;2022-12-18T00:04:38;37.58;;;21.23;;
53269;SDS011;39159;45.634;9.420;2022-12-18T00:07:03;37.72;;;20.80;;
53269;SDS011;39159;45.634;9.420;2022-12-18T00:09:29;36.63;;;21.45;;
53269;SDS011;39159;45.634;9.420;2022-12-18T00:11:54;35.83;;;20.48;;
53269;SDS011;39159;45.634;9.420;2022-12-18T00:14:20;34.70;;;21.13;;
53269;SDS011;39159;45.634;9.420;2022-12-18T00:16:45;38.38;;;21.23;;
53269;SDS011;39159;45.634;9.420;2022-12-18T00:19:11;36.33;;;21.75;;
53269;SDS011;39159;45.634;9.420;2022-12-18T00:21:38;35.65;;;21.40;;
53269;SDS011;39159;45.634;9.420;2022-12-18T00:24:03;34.13;;;20.45;;
53269;SDS011;39159;45.634;9.420;2022-12-18T00:26:30;32.40;;;19.75;;
53269;SDS011;39159;45.634;9.420;2022-12-18T00:29:04;33.38;;;20.83;;
53269;SDS011;39159;45.634;9.420;2022-12-18T00:31:36;33.28;;;20.60;;
53269;SDS011;39159;45.634;9.420;2022-12-18T00:34:02;34.35;;;20.75;;
53269;SDS011;39159;45.634;9.420;2022-12-18T00:36:29;33.65;;;21.50;;
53269;SDS011;39159;45.634;9.420;2022-12-18T00:38:57;31.70;;;19.73;;
53269;SDS011;39159;45.634;9.420;2022-12-18T00:41:24;33.65;;;19.50;;
53269;SDS011;39159;45.634;9.420;2022-12-18T00:44:09;31.85;;;20.38;;
53269;SDS011;39159;45.634;9.420;2022-12-18T00:46:37;32.40;;;20.48;;
53269;SDS011;39159;45.634;9.420;2022-12-18T00:49:02;35.13;;;21.00;;
53269;SDS011;39159;45.634;9.420;2022-12-18T00:51:28;32.05;;;19.52;;
53269;SDS011;39159;45.634;9.420;2022-12-18T00:53:54;30.85;;;19.42;;
53269;SDS011;39159;45.634;9.420;2022-12-18T00:56:19;33.10;;;19.30;;
53269;SDS011;39159;45.634;9.420;2022-12-18T00:58:45;29.17;;;18.50;;
53269;SDS011;39159;45.634;9.420;2022-12-18T01:01:10;29.85;;;18.92;;
53269;SDS011;39159;45.634;9.420;2022-12-18T01:03:36;29.45;;;18.45;;
53269;SDS011;39159;45.634;9.420;2022-12-18T01:06:11;29.10;;;18.05;;
53269;SDS011;39159;45.634;9.420;2022-12-18T01:08:38;28.38;;;17.20;;
53269;SDS011;39159;45.634;9.420;2022-12-18T01:11:22;26.23;;;16.88;;
53269;SDS011;39159;45.634;9.420;2022-12-18T01:13:48;28.00;;;16.52;;
53269;SDS011;39159;45.634;9.420;2022-12-18T01:16:14;26.48;;;16.58;;
53269;SDS011;39159;45.634;9.420;2022-12-18T01:18:41;26.30;;;16.60;;
53269;SDS011;39159;45.634;9.420;2022-12-18T01:21:08;24.30;;;15.85;;
53269;SDS011;39159;45.634;9.420;2022-12-18T01:23:37;25.17;;;16.50;;
53269;SDS011;39159;45.634;9.420;2022-12-18T01:26:04;26.08;;;16.30;;
53269;SDS011;39159;45.634;9.420;2022-12-18T01:28:30;24.83;;;16.38;;
53269;SDS011;39159;45.634;9.420;2022-12-18T01:30:55;24.10;;;15.75;;
53269;SDS011;39159;45.634;9.420;2022-12-18T01:33:21;21.42;;;14.77;;
53269;SDS011;39159;45.634;9.420;2022-12-18T01:35:46;24.02;;;15.57;;
53269;SDS011;39159;45.634;9.420;2022-12-18T01:38:12;22.20;;;15.50;;
53269;SDS011;39159;45.634;9.420;2022-12-18T01:40:37;23.02;;;15.40;;
53269;SDS011;39159;45.634;9.420;2022-12-18T01:43:03;22.50;;;14.93;;
53269;SDS011;39159;45.634;9.420;2022-12-18T01:45:29;20.67;;;13.75;;
53269;SDS011;39159;45.634;9.420;2022-12-18T01:50:37;21.65;;;14.43;;
53269;SDS011;39159;45.634;9.420;2022-12-18T01:53:06;22.73;;;13.75;;
53269;SDS011;39159;45.634;9.420;2022-12-18T01:55:37;20.95;;;13.85;;
53269;SDS011;39159;45.634;9.420;2022-12-18T01:58:08;18.58;;;13.73;;
53269;SDS011;39159;45.634;9.420;2022-12-18T02:00:33;20.75;;;13.13;;
53269;SDS011;39159;45.634;9.420;2022-12-18T02:02:59;19.40;;;12.98;;
53269;SDS011;39159;45.634;9.420;2022-12-18T02:05:44;18.63;;;12.27;;
53269;SDS011;39159;45.634;9.420;2022-12-18T02:08:21;18.27;;;12.82;;
53269;SDS011;39159;45.634;9.420;2022-12-18T02:11:07;18.70;;;12.55;;
53269;SDS011;39159;45.634;9.420;2022-12-18T02:16:43;18.23;;;11.98;;
53269;SDS011;39159;45.634;9.420;2022-12-18T02:19:21;18.88;;;11.93;;
53269;SDS011;39159;45.634;9.420;2022-12-18T02:25:24;18.42;;;11.65;;
53269;SDS011;39159;45.634;9.420;2022-12-18T02:27:53;17.23;;;11.82;;
53269;SDS011;39159;45.634;9.420;2022-12-18T02:30:24;16.15;;;11.15;;
53269;SDS011;39159;45.634;9.420;2022-12-18T02:32:54;15.80;;;10.93;;
53269;SDS011;39159;45.634;9.420;2022-12-18T02:35:23;15.85;;;11.52;;
53269;SDS011;39159;45.634;9.420;2022-12-18T02:37:50;15.05;;;10.23;;
53269;SDS011;39159;45.634;9.420;2022-12-18T02:40:18;14.20;;;10.48;;
53269;SDS011;39159;45.634;9.420;2022-12-18T02:42:45;15.07;;;10.90;;
53269;SDS011;39159;45.634;9.420;2022-12-18T02:45:11;15.75;;;10.57;;
53269;SDS011;39159;45.634;9.420;2022-12-18T02:47:38;17.20;;;11.38;;
53269;SDS011;39159;45.634;9.420;2022-12-18T02:53:01;14.50;;;10.63;;
53269;SDS011;39159;45.634;9.420;2022-12-18T02:59:09;14.52;;;9.68;;
53269;SDS011;39159;45.634;9.420;2022-12-18T03:01:43;14.98;;;10.25;;
53269;SDS011;39159;45.634;9.420;2022-12-18T03:04:36;14.93;;;9.65;;
53269;SDS011;39159;45.634;9.420;2022-12-18T03:07:09;13.70;;;9.60;;
53269;SDS011;39159;45.634;9.420;2022-12-18T03:09:41;16.42;;;9.90;;
53269;SDS011;39159;45.634;9.420;2022-12-18T03:12:18;14.30;;;10.10;;
53269;SDS011;39159;45.634;9.420;2022-12-18T03:17:38;15.48;;;10.68;;
53269;SDS011;39159;45.634;9.420;2022-12-18T03:20:10;14.77;;;10.02;;
53269;SDS011;39159;45.634;9.420;2022-12-18T03:22:39;15.95;;;10.05;;
53269;SDS011;39159;45.634;9.420;2022-12-18T03:25:09;14.15;;;9.98;;
53269;SDS011;39159;45.634;9.420;2022-12-18T03:27:39;14.95;;;10.25;;
53269;SDS011;39159;45.634;9.420;2022-12-18T03:30:09;16.92;;;11.20;;
53269;SDS011;39159;45.634;9.420;2022-12-18T03:33:00;16.42;;;11.20;;
53269;SDS011;39159;45.634;9.420;2022-12-18T03:35:26;17.15;;;11.27;;
53269;SDS011;39159;45.634;9.420;2022-12-18T03:37:56;18.80;;;11.35;;
53269;SDS011;39159;45.634;9.420;2022-12-18T03:40:22;18.30;;;11.75;;
53269;SDS011;39159;45.634;9.420;2022-12-18T03:43:16;19.25;;;12.57;;
53269;SDS011;39159;45.634;9.420;2022-12-18T03:45:51;18.65;;;12.48;;
53269;SDS011;39159;45.634;9.420;2022-12-18T03:48:28;18.42;;;13.10;;
53269;SDS011;39159;45.634;9.420;2022-12-18T03:50:57;23.38;;;13.75;;
53269;SDS011;39159;45.634;9.420;2022-12-18T03:56:18;18.33;;;12.50;;
53269;SDS011;39159;45.634;9.420;2022-12-18T03:58:47;17.25;;;11.70;;
53269;SDS011;39159;45.634;9.420;2022-12-18T04:01:15;21.65;;;14.73;;
53269;SDS011;39159;45.634;9.420;2022-12-18T04:03:43;19.65;;;13.77;;
53269;SDS011;39159;45.634;9.420;2022-12-18T04:06:11;21.25;;;14.07;;
53269;SDS011;39159;45.634;9.420;2022-12-18T04:08:37;21.98;;;14.90;;
53269;SDS011;39159;45.634;9.420;2022-12-18T04:11:05;30.25;;;15.88;;
53269;SDS011;39159;45.634;9.420;2022-12-18T04:13:35;19.75;;;14.10;;
53269;SDS011;39159;45.634;9.420;2022-12-18T04:16:02;21.52;;;14.48;;
53269;SDS011;39159;45.634;9.420;2022-12-18T04:18:27;23.30;;;15.05;;
53269;SDS011;39159;45.634;9.420;2022-12-18T04:20:53;21.25;;;13.35;;
53269;SDS011;39159;45.634;9.420;2022-12-18T04:23:18;21.90;;;14.70;;
53269;SDS011;39159;45.634;9.420;2022-12-18T04:25:44;20.73;;;13.10;;
53269;SDS011;39159;45.634;9.420;2022-12-18T04:28:10;17.88;;;12.93;;
53269;SDS011;39159;45.634;9.420;2022-12-18T04:30:35;21.98;;;14.57;;
53269;SDS011;39159;45.634;9.420;2022-12-18T04:33:00;20.52;;;14.02;;
53269;SDS011;39159;45.634;9.420;2022-12-18T04:35:26;20.77;;;14.45;;
53269;SDS011;39159;45.634;9.420;2022-12-18T04:37:52;22.58;;;14.07;;
53269;SDS011;39159;45.634;9.420;2022-12-18T04:40:17;17.67;;;12.35;;
53269;SDS011;39159;45.634;9.420;2022-12-18T04:42:43;20.00;;;12.90;;
53269;SDS011;39159;45.634;9.420;2022-12-18T04:45:08;16.05;;;11.15;;
53269;SDS011;39159;45.634;9.420;2022-12-18T04:47:34;17.90;;;11.02;;
53269;SDS011;39159;45.634;9.420;2022-12-18T04:49:59;16.90;;;11.38;;
53269;SDS011;39159;45.634;9.420;2022-12-18T04:52:25;16.10;;;10.63;;
53269;SDS011;39159;45.634;9.420;2022-12-18T04:54:50;13.27;;;9.43;;
53269;SDS011;39159;45.634;9.420;2022-12-18T04:57:16;16.88;;;10.32;;
53269;SDS011;39159;45.634;9.420;2022-12-18T04:59:43;16.30;;;10.70;;
53269;SDS011;39159;45.634;9.420;2022-12-18T05:02:09;17.58;;;11.15;;
53269;SDS011;39159;45.634;9.420;2022-12-18T05:04:34;16.58;;;11.80;;
53269;SDS011;39159;45.634;9.420;2022-12-18T05:07:00;16.25;;;11.57;;
53269;SDS011;39159;45.634;9.420;2022-12-18T05:09:25;16.55;;;11.18;;
53269;SDS011;39159;45.634;9.420;2022-12-18T05:11:50;16.45;;;11.23;;
53269;SDS011;39159;45.634;9.420;2022-12-18T05:14:16;14.98;;;10.43;;
53269;SDS011;39159;45.634;9.420;2022-12-18T05:16:41;18.00;;;11.95;;
53269;SDS011;39159;45.634;9.420;2022-12-18T05:19:07;17.52;;;12.07;;
53269;SDS011;39159;45.634;9.420;2022-12-18T05:21:32;17.98;;;13.13;;
53269;SDS011;39159;45.634;9.420;2022-12-18T05:23:58;16.80;;;12.00;;
53269;SDS011;39159;45.634;9.420;2022-12-18T05:26:23;17.58;;;12.80;;
53269;SDS011;39159;45.634;9.420;2022-12-18T05:28:49;18.02;;;12.13;;
53269;SDS011;39159;45.634;9.420;2022-12-18T05:31:14;18.20;;;12.05;;
53269;SDS011;39159;45.634;9.420;2022-12-18T05:33:39;17.67;;;12.25;;
53269;SDS011;39159;45.634;9.420;2022-12-18T05:36:06;15.10;;;10.20;;
53269;SDS011;39159;45.634;9.420;2022-12-18T05:38:33;18.92;;;12.35;;
53269;SDS011;39159;45.634;9.420;2022-12-18T05:41:00;18.10;;;10.95;;
53269;SDS011;39159;45.634;9.420;2022-12-18T05:43:26;15.75;;;10.25;;
53269;SDS011;39159;45.634;9.420;2022-12-18T05:45:52;16.80;;;10.48;;
53269;SDS011;39159;45.634;9.420;2022-12-18T05:48:18;14.98;;;10.45;;
53269;SDS011;39159;45.634;9.420;2022-12-18T05:50:45;18.90;;;12.90;;
53269;SDS011;39159;45.634;9.420;2022-12-18T05:53:12;18.60;;;12.57;;
53269;SDS011;39159;45.634;9.420;2022-12-18T05:55:39;18.48;;;12.10;;
53269;SDS011;39159;45.634;9.420;2022-12-18T05:58:06;17.13;;;11.10;;
53269;SDS011;39159;45.634;9.420;2022-12-18T06:00:34;17.17;;;11.40;;
53269;SDS011;39159;45.634;9.420;2022-12-18T06:03:04;17.33;;;11.38;;
53269;SDS011;39159;45.634;9.420;2022-12-18T06:05:34;14.38;;;10.65;;
53269;SDS011;39159;45.634;9.420;2022-12-18T06:08:01;14.68;;;9.50;;
53269;SDS011;39159;45.634;9.420;2022-12-18T06:10:27;12.43;;;8.95;;
53269;SDS011;39159;45.634;9.420;2022-12-18T06:12:52;14.20;;;9.55;;
53269;SDS011;39159;45.634;9.420;2022-12-18T06:15:17;15.13;;;10.25;;
53269;SDS011;39159;45.634;9.420;2022-12-18T06:17:43;14.77;;;10.50;;
53269;SDS011;39159;45.634;9.420;2022-12-18T06:20:08;14.90;;;10.00;;
53269;SDS011;39159;45.634;9.420;2022-12-18T06:22:34;15.13;;;10.18;;
53269;SDS011;39159;45.634;9.420;2022-12-18T06:25:00;14.18;;;9.75;;
53269;SDS011;39159;45.634;9.420;2022-12-18T06:27:25;15.38;;;10.43;;
53269;SDS011;39159;45.634;9.420;2022-12-18T06:29:51;16.20;;;11.25;;
53269;SDS011;39159;45.634;9.420;2022-12-18T06:32:16;15.20;;;10.07;;
53269;SDS011;39159;45.634;9.420;2022-12-18T06:34:42;14.80;;;11.00;;
53269;SDS011;39159;45.634;9.420;2022-12-18T06:37:07;12.38;;;10.05;;
53269;SDS011;39159;45.634;9.420;2022-12-18T06:39:32;15.10;;;11.15;;
53269;SDS011;39159;45.634;9.420;2022-12-18T06:41:58;13.77;;;10.10;;
53269;SDS011;39159;45.634;9.420;2022-12-18T06:44:23;14.70;;;10.52;;
53269;SDS011;39159;45.634;9.420;2022-12-18T06:46:49;15.68;;;10.80;;
53269;SDS011;39159;45.634;9.420;2022-12-18T06:49:14;15.52;;;11.05;;
53269;SDS011;39159;45.634;9.420;2022-12-18T06:51:41;22.90;;;14.43;;
53269;SDS011;39159;45.634;9.420;2022-12-18T06:54:06;20.27;;;13.77;;
53269;SDS011;39159;45.634;9.420;2022-12-18T06:56:32;21.63;;;13.98;;
53269;SDS011;39159;45.634;9.420;2022-12-18T06:58:57;21.42;;;14.75;;
53269;SDS011;39159;45.634;9.420;2022-12-18T07:01:23;20.20;;;13.70;;
53269;SDS011;39159;45.634;9.420;2022-12-18T07:03:52;23.33;;;13.88;;
53269;SDS011;39159;45.634;9.420;2022-12-18T07:06:20;18.88;;;12.43;;
53269;SDS011;39159;45.634;9.420;2022-12-18T07:08:48;16.50;;;11.38;;
53269;SDS011;39159;45.634;9.420;2022-12-18T07:11:14;17.15;;;11.85;;
53269;SDS011;39159;45.634;9.420;2022-12-18T07:13:40;19.33;;;13.55;;
53269;SDS011;39159;45.634;9.420;2022-12-18T07:16:13;20.83;;;13.48;;
53269;SDS011;39159;45.634;9.420;2022-12-18T07:18:43;21.60;;;14.40;;
53269;SDS011;39159;45.634;9.420;2022-12-18T07:21:09;27.45;;;16.17;;
53269;SDS011;39159;45.634;9.420;2022-12-18T07:23:36;24.88;;;15.20;;
53269;SDS011;39159;45.634;9.420;2022-12-18T07:26:09;24.50;;;15.57;;
53269;SDS011;39159;45.634;9.420;2022-12-18T07:28:37;25.85;;;15.27;;
53269;SDS011;39159;45.634;9.420;2022-12-18T07:31:08;25.35;;;16.55;;
53269;SDS011;39159;45.634;9.420;2022-12-18T07:33:41;25.25;;;16.48;;
53269;SDS011;39159;45.634;9.420;2022-12-18T07:36:07;22.35;;;15.70;;
53269;SDS011;39159;45.634;9.420;2022-12-18T07:38:35;24.75;;;16.48;;
53269;SDS011;39159;45.634;9.420;2022-12-18T07:41:04;21.70;;;15.32;;
53269;SDS011;39159;45.634;9.420;2022-12-18T07:43:31;22.00;;;15.60;;
53269;SDS011;39159;45.634;9.420;2022-12-18T07:45:57;23.13;;;15.52;;
53269;SDS011;39159;45.634;9.420;2022-12-18T07:48:22;30.85;;;19.35;;
53269;SDS011;39159;45.634;9.420;2022-12-18T07:50:48;24.75;;;16.27;;
53269;SDS011;39159;45.634;9.420;2022-12-18T07:53:13;25.45;;;16.10;;
53269;SDS011;39159;45.634;9.420;2022-12-18T07:55:39;24.13;;;16.35;;
53269;SDS011;39159;45.634;9.420;2022-12-18T07:58:06;22.27;;;16.00;;
53269;SDS011;39159;45.634;9.420;2022-12-18T08:00:32;22.92;;;16.02;;
53269;SDS011;39159;45.634;9.420;2022-12-18T08:02:57;21.50;;;14.35;;
53269;SDS011;39159;45.634;9.420;2022-12-18T08:05:23;25.85;;;17.45;;
53269;SDS011;39159;45.634;9.420;2022-12-18T08:07:49;28.83;;;18.67;;
53269;SDS011;39159;45.634;9.420;2022-12-18T08:10:14;29.40;;;17.80;;
53269;SDS011;39159;45.634;9.420;2022-12-18T08:12:40;22.58;;;14.68;;
53269;SDS011;39159;45.634;9.420;2022-12-18T08:15:05;26.58;;;15.93;;
53269;SDS011;39159;45.634;9.420;2022-12-18T08:17:31;20.80;;;14.48;;
53269;SDS011;39159;45.634;9.420;2022-12-18T08:19:57;23.83;;;15.02;;
53269;SDS011;39159;45.634;9.420;2022-12-18T08:22:22;20.15;;;14.23;;
53269;SDS011;39159;45.634;9.420;2022-12-18T08:24:48;32.17;;;21.77;;
53269;SDS011;39159;45.634;9.420;2022-12-18T08:27:13;25.63;;;16.83;;
53269;SDS011;39159;45.634;9.420;2022-12-18T08:29:39;26.40;;;17.58;;
53269;SDS011;39159;45.634;9.420;2022-12-18T08:32:04;30.42;;;19.65;;
53269;SDS011;39159;45.634;9.420;2022-12-18T08:34:30;29.75;;;17.90;;
53269;SDS011;39159;45.634;9.420;2022-12-18T08:36:55;26.13;;;17.45;;
53269;SDS011;39159;45.634;9.420;2022-12-18T08:39:20;29.92;;;18.83;;
53269;SDS011;39159;45.634;9.420;2022-12-18T08:41:46;31.85;;;19.52;;
53269;SDS011;39159;45.634;9.420;2022-12-18T08:44:31;36.33;;;21.30;;
53269;SDS011;39159;45.634;9.420;2022-12-18T08:47:04;35.58;;;21.23;;
53269;SDS011;39159;45.634;9.420;2022-12-18T08:49:30;37.95;;;21.90;;
53269;SDS011;39159;45.634;9.420;2022-12-18T08:51:56;37.88;;;21.38;;
53269;SDS011;39159;45.634;9.420;2022-12-18T08:54:25;39.30;;;21.55;;
53269;SDS011;39159;45.634;9.420;2022-12-18T08:56:51;36.58;;;21.58;;
53269;SDS011;39159;45.634;9.420;2022-12-18T08:59:17;35.88;;;20.75;;
53269;SDS011;39159;45.634;9.420;2022-12-18T09:01:43;31.83;;;18.00;;
53269;SDS011;39159;45.634;9.420;2022-12-18T09:04:10;29.25;;;18.35;;
53269;SDS011;39159;45.634;9.420;2022-12-18T09:06:35;34.30;;;20.25;;
53269;SDS011;39159;45.634;9.420;2022-12-18T09:09:02;35.53;;;21.13;;
53269;SDS011;39159;45.634;9.420;2022-12-18T09:11:28;44.63;;;24.52;;
53269;SDS011;39159;45.634;9.420;2022-12-18T09:13:54;36.33;;;21.63;;
53269;SDS011;39159;45.634;9.420;2022-12-18T09:16:21;35.03;;;20.85;;
53269;SDS011;39159;45.634;9.420;2022-12-18T09:18:47;35.63;;;21.15;;
53269;SDS011;39159;45.634;9.420;2022-12-18T09:21:15;32.15;;;18.83;;
53269;SDS011;39159;45.634;9.420;2022-12-18T09:23:41;31.13;;;19.02;;
53269;SDS011;39159;45.634;9.420;2022-12-18T09:26:07;32.38;;;18.40;;
53269;SDS011;39159;45.634;9.420;2022-12-18T09:28:33;29.60;;;17.27;;
53269;SDS011;39159;45.634;9.420;2022-12-18T09:30:59;29.95;;;17.80;;
53269;SDS011;39159;45.634;9.420;2022-12-18T09:33:29;35.50;;;19.08;;
53269;SDS011;39159;45.634;9.420;2022-12-18T09:35:55;32.65;;;18.00;;
53269;SDS011;39159;45.634;9.420;2022-12-18T09:38:20;34.45;;;19.75;;
53269;SDS011;39159;45.634;9.420;2022-12-18T09:40:52;30.15;;;18.15;;
53269;SDS011;39159;45.634;9.420;2022-12-18T09:43:28;29.95;;;18.00;;
53269;SDS011;39159;45.634;9.420;2022-12-18T09:45:59;24.75;;;14.02;;
53269;SDS011;39159;45.634;9.420;2022-12-18T09:48:29;15.38;;;9.93;;
53269;SDS011;39159;45.634;9.420;2022-12-18T09:50:59;12.13;;;8.15;;
53269;SDS011;39159;45.634;9.420;2022-12-18T09:53:30;9.77;;;6.75;;
53269;SDS011;39159;45.634;9.420;2022-12-18T09:55:59;9.02;;;6.47;;
53269;SDS011;39159;45.634;9.420;2022-12-18T09:58:49;11.18;;;7.00;;
53269;SDS011;39159;45.634;9.420;2022-12-18T10:01:18;33.25;;;10.90;;
53269;SDS011;39159;45.634;9.420;2022-12-18T10:03:47;342.30;;;67.68;;
53269;SDS011;39159;45.634;9.420;2022-12-18T10:17:16;9.20;;;5.60;;
53269;SDS011;39159;45.634;9.420;2022-12-18T10:19:53;11.52;;;5.50;;
53269;SDS011;39159;45.634;9.420;2022-12-18T10:22:29;8.68;;;5.25;;
53269;SDS011;39159;45.634;9.420;2022-12-18T10:25:13;8.70;;;5.70;;
53269;SDS011;39159;45.634;9.420;2022-12-18T10:27:51;9.00;;;5.95;;
53269;SDS011;39159;45.634;9.420;2022-12-18T10:30:21;8.57;;;5.55;;
53269;SDS011;39159;45.634;9.420;2022-12-18T10:32:47;8.48;;;5.65;;
53269;SDS011;39159;45.634;9.420;2022-12-18T10:35:31;11.25;;;5.97;;
53269;SDS011;39159;45.634;9.420;2022-12-18T10:43:30;10.05;;;6.13;;
53269;SDS011;39159;45.634;9.420;2022-12-18T10:46:11;9.02;;;6.55;;
53269;SDS011;39159;45.634;9.420;2022-12-18T10:51:19;9.77;;;6.85;;
53269;SDS011;39159;45.634;9.420;2022-12-18T10:53:56;10.07;;;6.78;;
53269;SDS011;39159;45.634;9.420;2022-12-18T10:56:26;11.85;;;7.75;;
53269;SDS011;39159;45.634;9.420;2022-12-18T10:59:12;12.02;;;8.32;;
53269;SDS011;39159;45.634;9.420;2022-12-18T11:02:00;13.27;;;8.93;;
53269;SDS011;39159;45.634;9.420;2022-12-18T11:06:56;14.32;;;9.35;;
53269;SDS011;39159;45.634;9.420;2022-12-18T11:09:32;13.60;;;9.02;;
53269;SDS011;39159;45.634;9.420;2022-12-18T11:12:02;15.25;;;9.13;;
53269;SDS011;39159;45.634;9.420;2022-12-18T11:14:41;13.40;;;9.18;;
53269;SDS011;39159;45.634;9.420;2022-12-18T11:17:38;13.73;;;8.88;;
53269;SDS011;39159;45.634;9.420;2022-12-18T11:20:05;12.10;;;8.18;;
53269;SDS011;39159;45.634;9.420;2022-12-18T11:22:44;14.45;;;9.63;;
53269;SDS011;39159;45.634;9.420;2022-12-18T11:25:26;12.30;;;7.88;;
53269;SDS011;39159;45.634;9.420;2022-12-18T11:27:56;14.77;;;9.85;;
53269;SDS011;39159;45.634;9.420;2022-12-18T11:30:29;14.57;;;9.68;;
53269;SDS011;39159;45.634;9.420;2022-12-18T11:33:05;15.95;;;10.55;;
53269;SDS011;39159;45.634;9.420;2022-12-18T11:40:58;38.78;;;20.13;;
53269;SDS011;39159;45.634;9.420;2022-12-18T11:43:31;37.42;;;18.92;;
53269;SDS011;39159;45.634;9.420;2022-12-18T11:46:06;37.22;;;19.52;;
53269;SDS011;39159;45.634;9.420;2022-12-18T11:48:40;30.88;;;18.23;;
53269;SDS011;39159;45.634;9.420;2022-12-18T11:51:14;28.23;;;16.40;;
53269;SDS011;39159;45.634;9.420;2022-12-18T11:53:45;34.50;;;19.73;;
53269;SDS011;39159;45.634;9.420;2022-12-18T11:56:26;34.58;;;18.77;;
53269;SDS011;39159;45.634;9.420;2022-12-18T11:59:15;36.92;;;19.17;;
53269;SDS011;39159;45.634;9.420;2022-12-18T12:04:50;36.13;;;19.80;;
53269;SDS011;39159;45.634;9.420;2022-12-18T12:10:05;31.55;;;17.80;;
53269;SDS011;39159;45.634;9.420;2022-12-18T12:21:37;34.38;;;19.02;;
53269;SDS011;39159;45.634;9.420;2022-12-18T12:32:11;32.47;;;18.70;;
53269;SDS011;39159;45.634;9.420;2022-12-18T12:40:17;25.52;;;15.68;;
53269;SDS011;39159;45.634;9.420;2022-12-18T12:42:46;23.58;;;14.18;;
53269;SDS011;39159;45.634;9.420;2022-12-18T12:45:36;25.33;;;13.60;;
53269;SDS011;39159;45.634;9.420;2022-12-18T12:48:19;23.08;;;14.55;;
53269;SDS011;39159;45.634;9.420;2022-12-18T12:50:45;23.98;;;14.65;;
53269;SDS011;39159;45.634;9.420;2022-12-18T12:53:21;22.50;;;13.90;;
53269;SDS011;39159;45.634;9.420;2022-12-18T12:55:52;20.65;;;13.93;;
53269;SDS011;39159;45.634;9.420;2022-12-18T12:58:23;21.20;;;14.05;;
53269;SDS011;39159;45.634;9.420;2022-12-18T13:01:08;26.95;;;15.52;;
53269;SDS011;39159;45.634;9.420;2022-12-18T13:06:53;26.48;;;15.90;;
53269;SDS011;39159;45.634;9.420;2022-12-18T13:09:29;26.95;;;16.13;;
53269;SDS011;39159;45.634;9.420;2022-12-18T13:12:00;26.42;;;15.80;;
53269;SDS011;39159;45.634;9.420;2022-12-18T13:14:46;26.95;;;17.33;;
53269;SDS011;39159;45.634;9.420;2022-12-18T13:17:16;27.17;;;16.65;;
53269;SDS011;39159;45.634;9.420;2022-12-18T13:22:20;30.95;;;18.08;;
53269;SDS011;39159;45.634;9.420;2022-12-18T13:24:53;31.88;;;17.70;;
53269;SDS011;39159;45.634;9.420;2022-12-18T13:38:45;36.38;;;20.98;;
53269;SDS011;39159;45.634;9.420;2022-12-18T13:46:19;39.50;;;22.00;;
53269;SDS011;39159;45.634;9.420;2022-12-18T13:48:58;36.05;;;21.58;;
53269;SDS011;39159;45.634;9.420;2022-12-18T13:51:27;39.60;;;23.15;;
53269;SDS011;39159;45.634;9.420;2022-12-18T13:53:58;39.72;;;24.42;;
53269;SDS011;39159;45.634;9.420;2022-12-18T13:56:28;49.47;;;28.08;;
53269;SDS011;39159;45.634;9.420;2022-12-18T14:01:52;41.42;;;23.88;;
53269;SDS011;39159;45.634;9.420;2022-12-18T14:04:30;42.75;;;24.23;;
53269;SDS011;39159;45.634;9.420;2022-12-18T14:06:58;41.58;;;23.83;;
53269;SDS011;39159;45.634;9.420;2022-12-18T14:09:29;45.20;;;24.27;;
53269;SDS011;39159;45.634;9.420;2022-12-18T14:11:59;41.83;;;24.20;;
53269;SDS011;39159;45.634;9.420;2022-12-18T14:14:48;43.45;;;23.30;;
53269;SDS011;39159;45.634;9.420;2022-12-18T14:17:15;41.10;;;22.83;;
53269;SDS011;39159;45.634;9.420;2022-12-18T14:19:45;42.38;;;24.02;;
53269;SDS011;39159;45.634;9.420;2022-12-18T14:22:15;39.40;;;23.38;;
53269;SDS011;39159;45.634;9.420;2022-12-18T14:24:44;38.00;;;24.00;;
53269;SDS011;39159;45.634;9.420;2022-12-18T14:27:24;41.03;;;23.52;;
53269;SDS011;39159;45.634;9.420;2022-12-18T14:29:50;43.58;;;24.20;;
53269;SDS011;39159;45.634;9.420;2022-12-18T14:32:17;39.55;;;24.00;;
53269;SDS011;39159;45.634;9.420;2022-12-18T14:34:45;41.00;;;24.50;;
53269;SDS011;39159;45.634;9.420;2022-12-18T14:37:15;39.28;;;23.50;;
53269;SDS011;39159;45.634;9.420;2022-12-18T14:42:27;45.15;;;25.27;;
53269;SDS011;39159;45.634;9.420;2022-12-18T14:50:22;43.33;;;24.92;;
53269;SDS011;39159;45.634;9.420;2022-12-18T14:52:47;41.53;;;23.15;;
53269;SDS011;39159;45.634;9.420;2022-12-18T14:55:16;43.97;;;25.58;;
53269;SDS011;39159;45.634;9.420;2022-12-18T14:57:43;45.97;;;25.35;;
53269;SDS011;39159;45.634;9.420;2022-12-18T15:00:17;39.00;;;23.98;;
53269;SDS011;39159;45.634;9.420;2022-12-18T15:02:48;46.55;;;26.02;;
53269;SDS011;39159;45.634;9.420;2022-12-18T15:07:51;38.85;;;22.70;;
53269;SDS011;39159;45.634;9.420;2022-12-18T15:12:49;44.50;;;25.60;;
53269;SDS011;39159;45.634;9.420;2022-12-18T15:18:05;38.88;;;23.20;;
53269;SDS011;39159;45.634;9.420;2022-12-18T15:20:52;43.05;;;24.85;;
53269;SDS011;39159;45.634;9.420;2022-12-18T15:25:58;40.30;;;24.55;;
53269;SDS011;39159;45.634;9.420;2022-12-18T15:28:26;40.40;;;23.23;;
53269;SDS011;39159;45.634;9.420;2022-12-18T15:30:58;46.03;;;25.23;;
53269;SDS011;39159;45.634;9.420;2022-12-18T15:33:29;45.97;;;26.08;;
53269;SDS011;39159;45.634;9.420;2022-12-18T15:36:00;40.58;;;24.55;;
53269;SDS011;39159;45.634;9.420;2022-12-18T15:38:28;44.43;;;24.60;;
53269;SDS011;39159;45.634;9.420;2022-12-18T15:40:54;41.53;;;25.65;;
53269;SDS011;39159;45.634;9.420;2022-12-18T15:43:22;43.58;;;24.65;;
53269;SDS011;39159;45.634;9.420;2022-12-18T15:46:05;43.70;;;23.40;;
53269;SDS011;39159;45.634;9.420;2022-12-18T15:48:34;40.08;;;22.65;;
53269;SDS011;39159;45.634;9.420;2022-12-18T15:51:04;41.22;;;23.63;;
53269;SDS011;39159;45.634;9.420;2022-12-18T15:53:35;40.92;;;24.38;;
53269;SDS011;39159;45.634;9.420;2022-12-18T15:56:01;46.33;;;25.90;;
53269;SDS011;39159;45.634;9.420;2022-12-18T15:58:45;48.35;;;28.88;;
53269;SDS011;39159;45.634;9.420;2022-12-18T16:01:10;52.10;;;30.80;;
53269;SDS011;39159;45.634;9.420;2022-12-18T16:03:36;49.33;;;29.90;;
53269;SDS011;39159;45.634;9.420;2022-12-18T16:06:02;56.67;;;31.58;;
53269;SDS011;39159;45.634;9.420;2022-12-18T16:08:28;53.95;;;28.10;;
53269;SDS011;39159;45.634;9.420;2022-12-18T16:10:55;48.90;;;28.30;;
53269;SDS011;39159;45.634;9.420;2022-12-18T16:13:21;47.70;;;27.23;;
53269;SDS011;39159;45.634;9.420;2022-12-18T16:15:46;51.50;;;28.15;;
53269;SDS011;39159;45.634;9.420;2022-12-18T16:18:12;50.15;;;29.27;;
53269;SDS011;39159;45.634;9.420;2022-12-18T16:20:37;51.00;;;29.63;;
53269;SDS011;39159;45.634;9.420;2022-12-18T16:23:03;47.78;;;27.80;;
53269;SDS011;39159;45.634;9.420;2022-12-18T16:25:29;54.38;;;29.45;;
53269;SDS011;39159;45.634;9.420;2022-12-18T16:27:55;54.10;;;28.50;;
53269;SDS011;39159;45.634;9.420;2022-12-18T16:30:23;48.28;;;26.77;;
53269;SDS011;39159;45.634;9.420;2022-12-18T16:32:52;51.78;;;28.15;;
53269;SDS011;39159;45.634;9.420;2022-12-18T16:35:18;55.15;;;28.85;;
53269;SDS011;39159;45.634;9.420;2022-12-18T16:37:43;50.60;;;27.27;;